Time;durP1;ratioP1;P1;durP2;ratioP2;P2;SDS_P1;SDS_P2;PMS_P1;PMS_P2;Temp;Humidity;BMP_temperature;BMP_pressure;BME280_temperature;BME280_humidity;BME280_pressure;Samples;Min_cycle;Max_cycle;Signal;HPM_P1;HPM_P2
2023/12/10 00:02:17;;;;;;;23.35;4.90;;;10.20;81.60;;;;;;5038363;28;20021;-77
2023/12/10 00:04:43;;;;;;;25.52;4.60;;;10.20;81.70;;;;;;5034206;28;20032;-77
2023/12/10 00:07:10;;;;;;;27.50;5.80;;;10.10;81.50;;;;;;5039333;28;20572;-77
2023/12/10 00:09:35;;;;;;;24.05;5.50;;;10.10;81.00;;;;;;5030407;28;20078;-77
2023/12/10 00:12:01;;;;;;;22.92;5.38;;;10.10;81.10;;;;;;5033462;28;20032;-77
2023/12/10 00:14:27;;;;;;;25.42;6.03;;;10.20;80.80;;;;;;5035977;28;20131;-77
2023/12/10 00:16:53;;;;;;;23.90;5.10;;;10.20;80.50;;;;;;5038872;28;20024;-77
2023/12/10 00:19:19;;;;;;;23.00;5.25;;;10.20;80.10;;;;;;5035449;28;20037;-77
2023/12/10 00:21:46;;;;;;;23.13;5.00;;;10.20;80.30;;;;;;5031202;28;20053;-77
2023/12/10 00:24:12;;;;;;;21.42;4.97;;;10.20;80.40;;;;;;5038170;28;20017;-77
2023/12/10 00:26:38;;;;;;;21.77;4.55;;;10.20;80.50;;;;;;5034484;28;20124;-77
2023/12/10 00:29:03;;;;;;;26.52;5.40;;;10.10;80.50;;;;;;5040946;28;20104;-77
2023/12/10 00:31:29;;;;;;;23.35;5.13;;;10.10;80.70;;;;;;5028096;28;20037;-77
2023/12/10 00:33:55;;;;;;;21.92;5.15;;;10.10;80.60;;;;;;5037878;28;20112;-77
2023/12/10 00:36:21;;;;;;;24.85;4.65;;;10.10;80.60;;;;;;5034162;28;20045;-77
2023/12/10 00:38:47;;;;;;;30.85;5.72;;;10.10;80.60;;;;;;5041543;28;20029;-77
2023/12/10 00:41:13;;;;;;;26.83;4.70;;;10.10;80.40;;;;;;5027839;28;20120;-76
2023/12/10 00:43:40;;;;;;;22.10;4.97;;;10.20;80.40;;;;;;5040023;28;20040;-77
2023/12/10 00:46:06;;;;;;;23.42;6.13;;;10.20;80.20;;;;;;5033957;28;20624;-77
2023/12/10 00:48:33;;;;;;;20.80;5.32;;;10.20;80.40;;;;;;5037552;28;20095;-77
2023/12/10 00:50:59;;;;;;;30.52;4.32;;;10.20;80.60;;;;;;5035879;28;20283;-76
2023/12/10 00:53:25;;;;;;;21.95;5.95;;;10.10;80.70;;;;;;5038966;28;20424;-77
2023/12/10 00:55:51;;;;;;;22.55;4.72;;;10.10;81.10;;;;;;5040373;28;20049;-77
2023/12/10 00:58:17;;;;;;;25.77;5.25;;;10.10;81.20;;;;;;5032324;28;20690;-76
2023/12/10 01:00:43;;;;;;;28.05;6.07;;;10.10;81.30;;;;;;5036063;28;20064;-76
2023/12/10 01:03:09;;;;;;;24.20;5.03;;;10.10;81.60;;;;;;5040393;28;20583;-77
2023/12/10 01:05:35;;;;;;;22.77;4.85;;;10.00;81.70;;;;;;5034253;28;20060;-77
2023/12/10 01:08:00;;;;;;;21.23;6.07;;;10.10;81.60;;;;;;5042394;28;20091;-77
2023/12/10 01:10:26;;;;;;;27.33;5.13;;;10.10;81.50;;;;;;5038826;28;20037;-77
2023/12/10 01:12:52;;;;;;;26.10;5.85;;;10.10;81.30;;;;;;5035853;28;20048;-78
2023/12/10 01:15:29;;;;;;;26.83;5.25;;;10.10;81.50;;;;;;5045851;28;20045;-77
2023/12/10 01:18:00;;;;;;;30.25;5.65;;;10.10;81.60;;;;;;5038085;28;20082;-77
2023/12/10 01:20:30;;;;;;;27.45;6.00;;;10.10;81.70;;;;;;5041152;28;20033;-77
2023/12/10 01:22:56;;;;;;;21.80;4.85;;;10.10;81.60;;;;;;5037919;28;20036;-77
2023/12/10 01:25:22;;;;;;;24.40;5.75;;;10.10;81.20;;;;;;5036475;28;20342;-77
2023/12/10 01:27:48;;;;;;;23.42;5.10;;;10.10;81.00;;;;;;5038414;28;20355;-77
2023/12/10 01:30:13;;;;;;;24.88;5.03;;;10.10;81.30;;;;;;5039582;28;20033;-77
2023/12/10 01:32:40;;;;;;;24.25;5.15;;;10.10;81.60;;;;;;5033089;28;20021;-76
2023/12/10 01:35:08;;;;;;;29.10;5.40;;;10.10;81.60;;;;;;5041581;28;20700;-77
2023/12/10 01:37:33;;;;;;;23.67;5.30;;;10.10;81.20;;;;;;5040640;28;20136;-77
2023/12/10 01:39:59;;;;;;;27.38;6.22;;;10.10;81.10;;;;;;5035661;28;20073;-77
2023/12/10 01:42:25;;;;;;;22.20;5.32;;;10.10;81.00;;;;;;5035898;28;20222;-77
2023/12/10 01:44:51;;;;;;;26.15;4.97;;;10.10;81.00;;;;;;5039744;28;20037;-78
2023/12/10 01:47:18;;;;;;;27.27;5.60;;;10.10;81.20;;;;;;5031740;28;20032;-77
2023/12/10 01:49:46;;;;;;;25.70;5.90;;;10.10;80.90;;;;;;5043222;28;20268;-77
2023/12/10 01:52:12;;;;;;;23.05;5.15;;;10.10;80.80;;;;;;5043536;28;20009;-77
2023/12/10 01:54:38;;;;;;;24.60;5.55;;;10.10;81.00;;;;;;5043988;28;20446;-78
2023/12/10 01:57:04;;;;;;;23.00;5.57;;;10.10;81.10;;;;;;5038551;28;20217;-80
2023/12/10 01:59:31;;;;;;;27.17;5.88;;;10.10;81.10;;;;;;5034509;28;20348;-77
2023/12/10 02:01:57;;;;;;;23.83;5.65;;;10.10;80.90;;;;;;5039704;28;20560;-77
2023/12/10 02:04:23;;;;;;;24.85;5.65;;;10.10;81.20;;;;;;5039957;28;20418;-77
2023/12/10 02:06:49;;;;;;;29.05;5.45;;;10.10;81.00;;;;;;5035643;28;20044;-77
2023/12/10 02:09:18;;;;;;;23.05;4.95;;;10.10;80.70;;;;;;5039527;28;20120;-78
2023/12/10 02:11:44;;;;;;;22.13;6.60;;;10.10;80.90;;;;;;5038580;28;20038;-77
2023/12/10 02:14:10;;;;;;;29.77;5.95;;;10.10;81.00;;;;;;5038055;28;20383;-77
2023/12/10 02:16:36;;;;;;;24.65;6.82;;;10.10;81.20;;;;;;5037536;28;20060;-77
2023/12/10 02:19:01;;;;;;;21.15;4.13;;;10.10;80.90;;;;;;5043968;28;20032;-77
2023/12/10 02:21:31;;;;;;;22.75;5.03;;;10.10;80.90;;;;;;5036893;28;20044;-77
2023/12/10 02:24:03;;;;;;;25.98;5.70;;;10.10;81.10;;;;;;5038951;28;20029;-77
2023/12/10 02:26:29;;;;;;;27.67;5.88;;;10.00;81.60;;;;;;5041134;28;20131;-77
2023/12/10 02:28:55;;;;;;;20.80;4.88;;;10.10;81.30;;;;;;5030744;28;20029;-77
2023/12/10 02:31:21;;;;;;;22.15;5.18;;;10.10;81.30;;;;;;5030841;28;20034;-77
2023/12/10 02:33:47;;;;;;;30.25;6.35;;;10.00;81.30;;;;;;5037988;28;20021;-77
2023/12/10 02:36:13;;;;;;;23.75;4.97;;;10.10;81.20;;;;;;5037075;28;20040;-77
2023/12/10 02:38:39;;;;;;;24.20;6.07;;;9.90;81.50;;;;;;5039066;28;20021;-77
2023/12/10 02:41:07;;;;;;;23.15;5.28;;;10.00;81.30;;;;;;5036411;28;20041;-77
2023/12/10 02:43:33;;;;;;;25.63;5.78;;;10.00;81.00;;;;;;5037909;28;20516;-77
2023/12/10 02:45:59;;;;;;;24.08;5.90;;;10.10;81.00;;;;;;5029624;28;20325;-77
2023/12/10 02:48:24;;;;;;;29.00;6.13;;;10.00;81.10;;;;;;5037141;28;20110;-76
2023/12/10 02:50:50;;;;;;;24.55;5.07;;;10.00;81.10;;;;;;5031870;28;20267;-76
2023/12/10 02:53:17;;;;;;;27.63;6.10;;;10.00;81.10;;;;;;5030328;28;20470;-76
2023/12/10 02:55:42;;;;;;;25.83;6.65;;;10.00;81.20;;;;;;5032685;28;20050;-76
2023/12/10 02:58:08;;;;;;;28.00;5.70;;;9.90;81.40;;;;;;5039812;28;20031;-76
2023/12/10 03:00:34;;;;;;;30.92;6.53;;;9.90;81.60;;;;;;5028341;28;20041;-76
2023/12/10 03:03:00;;;;;;;27.08;5.65;;;9.80;81.70;;;;;;5036806;28;20025;-76
2023/12/10 03:05:26;;;;;;;30.45;6.60;;;9.90;81.60;;;;;;5034753;28;20044;-76
2023/12/10 03:07:52;;;;;;;25.00;7.05;;;9.80;81.80;;;;;;5035880;28;20059;-76
2023/12/10 03:10:18;;;;;;;22.60;5.55;;;9.90;81.70;;;;;;5034898;28;20494;-77
2023/12/10 03:12:44;;;;;;;27.25;5.95;;;9.80;82.10;;;;;;5032388;28;20032;-76
2023/12/10 03:15:10;;;;;;;27.05;6.18;;;9.90;81.70;;;;;;5032981;28;20039;-76
2023/12/10 03:17:35;;;;;;;22.20;5.82;;;9.90;81.70;;;;;;5033114;28;20470;-77
2023/12/10 03:20:02;;;;;;;25.63;5.45;;;10.00;81.70;;;;;;5042497;28;20539;-76
2023/12/10 03:22:29;;;;;;;26.33;6.32;;;9.90;82.00;;;;;;5044353;28;20029;-76
2023/12/10 03:24:55;;;;;;;26.48;6.28;;;9.90;82.10;;;;;;5032360;28;20033;-76
2023/12/10 03:27:21;;;;;;;28.15;6.32;;;9.90;82.20;;;;;;5039423;28;20021;-76
2023/12/10 03:29:47;;;;;;;33.30;7.53;;;9.90;82.20;;;;;;5028054;28;22242;-76
2023/12/10 03:32:13;;;;;;;29.90;6.60;;;9.90;82.00;;;;;;5033027;28;20032;-76
2023/12/10 03:34:39;;;;;;;29.88;6.95;;;9.90;82.10;;;;;;5031361;28;20392;-76
2023/12/10 03:37:05;;;;;;;31.73;6.93;;;10.00;82.30;;;;;;5038248;28;20032;-76
2023/12/10 03:39:30;;;;;;;21.60;5.13;;;9.90;82.40;;;;;;5028402;28;20083;-76
2023/12/10 03:41:56;;;;;;;26.40;5.95;;;9.90;82.60;;;;;;5039462;28;20036;-76
2023/12/10 03:44:22;;;;;;;27.27;6.13;;;9.90;82.70;;;;;;5039477;28;20499;-76
2023/12/10 03:46:47;;;;;;;24.95;6.07;;;9.90;82.80;;;;;;5032882;28;20105;-76
2023/12/10 03:49:13;;;;;;;23.02;5.28;;;9.80;82.90;;;;;;5039465;28;20036;-77
2023/12/10 03:51:39;;;;;;;31.75;6.50;;;9.80;82.70;;;;;;5039242;28;20406;-75
2023/12/10 03:54:05;;;;;;;25.05;6.03;;;9.90;82.40;;;;;;5033036;28;20104;-77
2023/12/10 03:56:30;;;;;;;23.45;6.20;;;10.00;82.40;;;;;;5033616;28;20033;-77
2023/12/10 03:58:56;;;;;;;27.58;6.05;;;9.90;82.60;;;;;;5031511;28;20040;-76
2023/12/10 04:01:22;;;;;;;28.67;5.78;;;9.90;82.80;;;;;;5031090;28;20568;-78
2023/12/10 04:03:48;;;;;;;28.75;6.38;;;9.80;83.20;;;;;;5033246;28;20021;-76
2023/12/10 04:06:13;;;;;;;25.38;5.55;;;9.80;83.40;;;;;;5037633;28;20033;-76
2023/12/10 04:08:39;;;;;;;25.00;6.35;;;9.80;83.40;;;;;;5029867;28;20021;-77
2023/12/10 04:11:05;;;;;;;29.05;5.50;;;9.80;83.50;;;;;;5032754;28;20034;-76
2023/12/10 04:13:31;;;;;;;22.40;5.05;;;9.80;83.40;;;;;;5027939;28;20026;-76
2023/12/10 04:15:57;;;;;;;27.75;5.70;;;9.80;83.50;;;;;;5037678;28;20072;-77
2023/12/10 04:18:22;;;;;;;25.10;5.95;;;9.70;83.80;;;;;;5036148;28;20037;-76
2023/12/10 04:20:48;;;;;;;27.55;6.03;;;9.80;83.50;;;;;;5034103;28;20095;-77
2023/12/10 04:23:14;;;;;;;24.42;5.25;;;9.80;83.40;;;;;;5032406;28;20513;-76
2023/12/10 04:25:39;;;;;;;24.45;4.90;;;9.80;83.80;;;;;;5040950;28;20041;-76
2023/12/10 04:28:07;;;;;;;25.40;5.07;;;9.80;83.80;;;;;;5051852;28;20022;-77
2023/12/10 04:30:33;;;;;;;24.67;5.78;;;9.70;83.80;;;;;;5050984;28;20028;-77
2023/12/10 04:32:58;;;;;;;26.45;5.45;;;9.70;83.70;;;;;;5060504;28;20033;-76
2023/12/10 04:35:24;;;;;;;29.70;7.10;;;9.80;83.70;;;;;;5031040;28;20134;-76
2023/12/10 04:37:50;;;;;;;29.75;5.63;;;9.70;84.00;;;;;;5037538;28;20079;-77
2023/12/10 04:40:15;;;;;;;30.17;5.30;;;9.70;84.40;;;;;;5030974;28;20443;-76
2023/12/10 04:42:42;;;;;;;24.27;5.13;;;9.70;84.20;;;;;;5043381;28;20028;-76
2023/12/10 04:45:08;;;;;;;26.90;5.40;;;9.70;84.40;;;;;;5035370;28;20039;-76
2023/12/10 04:47:35;;;;;;;26.42;5.57;;;9.70;84.40;;;;;;5035193;28;20073;-76
2023/12/10 04:50:02;;;;;;;30.25;5.85;;;9.70;84.60;;;;;;5038104;28;20041;-76
2023/12/10 04:52:29;;;;;;;28.33;5.78;;;9.60;84.90;;;;;;5040569;28;20021;-76
2023/12/10 04:54:55;;;;;;;22.08;5.72;;;9.60;85.00;;;;;;5039393;28;20430;-76
2023/12/10 04:57:20;;;;;;;31.75;5.72;;;9.60;85.10;;;;;;5039627;28;20067;-76
2023/12/10 04:59:46;;;;;;;27.25;5.32;;;9.60;85.30;;;;;;5035384;28;20112;-76
2023/12/10 05:02:12;;;;;;;26.98;5.13;;;9.60;85.40;;;;;;5041592;28;20736;-76
2023/12/10 05:04:37;;;;;;;28.08;6.38;;;9.60;84.90;;;;;;5037756;28;20098;-76
2023/12/10 05:07:03;;;;;;;27.30;5.25;;;9.70;84.60;;;;;;5033491;28;20034;-76
2023/12/10 05:09:29;;;;;;;30.23;6.60;;;9.60;84.90;;;;;;5047830;28;20108;-76
2023/12/10 05:11:54;;;;;;;24.80;6.00;;;9.60;85.00;;;;;;5027242;28;20100;-77
2023/12/10 05:14:20;;;;;;;27.70;6.38;;;9.60;84.80;;;;;;5038125;28;20028;-76
2023/12/10 05:16:45;;;;;;;27.02;6.85;;;9.60;84.70;;;;;;5033372;28;20044;-76
2023/12/10 05:19:11;;;;;;;27.55;5.47;;;9.70;84.70;;;;;;5034805;28;20037;-76
2023/12/10 05:21:37;;;;;;;21.38;5.13;;;9.70;84.70;;;;;;5029092;28;20441;-76
2023/12/10 05:24:03;;;;;;;27.52;5.45;;;9.70;84.80;;;;;;5036970;28;20029;-77
2023/12/10 05:26:29;;;;;;;22.48;5.90;;;9.60;85.00;;;;;;5028846;28;20041;-76
2023/12/10 05:28:54;;;;;;;24.27;5.30;;;9.60;85.40;;;;;;5034035;28;20029;-76
2023/12/10 05:31:20;;;;;;;26.65;5.50;;;9.60;85.40;;;;;;5034083;28;20044;-76
2023/12/10 05:33:45;;;;;;;28.45;5.32;;;9.60;85.30;;;;;;5031072;28;20251;-76
2023/12/10 05:36:11;;;;;;;22.17;4.85;;;9.60;85.40;;;;;;5032621;28;20488;-76
2023/12/10 05:38:37;;;;;;;29.92;5.85;;;9.60;85.40;;;;;;5035853;28;20032;-76
2023/12/10 05:41:02;;;;;;;25.45;6.00;;;9.60;85.70;;;;;;5039620;28;20045;-76
2023/12/10 05:43:28;;;;;;;28.00;5.53;;;9.50;86.30;;;;;;5028382;28;20033;-75
2023/12/10 05:45:54;;;;;;;25.48;5.15;;;9.50;86.20;;;;;;5031416;28;20457;-76
2023/12/10 05:48:20;;;;;;;27.67;6.05;;;9.50;86.50;;;;;;5031282;28;20104;-77
2023/12/10 05:50:46;;;;;;;19.75;6.90;;;9.40;86.60;;;;;;5040698;28;20037;-76
2023/12/10 05:53:12;;;;;;;23.83;7.00;;;9.50;87.10;;;;;;5029446;28;20095;-76
2023/12/10 05:55:37;;;;;;;28.60;8.48;;;9.50;87.10;;;;;;5030373;28;20440;-78
2023/12/10 05:58:03;;;;;;;32.58;10.10;;;9.50;87.00;;;;;;5032945;28;20025;-76
2023/12/10 06:00:29;;;;;;;31.23;10.32;;;9.50;87.20;;;;;;5032010;28;20033;-76
2023/12/10 06:02:54;;;;;;;38.22;10.63;;;9.40;87.50;;;;;;5042492;28;20112;-78
2023/12/10 06:05:20;;;;;;;24.88;9.07;;;9.30;87.80;;;;;;5039109;28;20129;-77
2023/12/10 06:07:46;;;;;;;28.52;6.00;;;9.30;87.80;;;;;;5029942;28;20093;-77
2023/12/10 06:10:12;;;;;;;31.13;6.28;;;9.30;88.10;;;;;;5029824;28;20037;-77
2023/12/10 06:12:38;;;;;;;28.15;6.60;;;9.30;88.10;;;;;;5027944;28;20043;-77
2023/12/10 06:15:04;;;;;;;25.42;6.00;;;9.30;88.50;;;;;;5034539;28;20057;-77
2023/12/10 06:17:30;;;;;;;26.17;6.25;;;9.20;88.60;;;;;;5042258;28;20084;-77
2023/12/10 06:19:56;;;;;;;21.85;5.30;;;9.20;88.70;;;;;;5032900;28;20029;-77
2023/12/10 06:22:22;;;;;;;29.98;5.28;;;9.30;89.20;;;;;;5041304;28;20013;-77
2023/12/10 06:24:49;;;;;;;31.85;6.00;;;9.20;89.00;;;;;;5035634;28;20600;-77
2023/12/10 06:27:14;;;;;;;30.40;5.65;;;9.20;89.20;;;;;;5025590;28;20489;-77
2023/12/10 06:29:41;;;;;;;26.80;5.05;;;9.20;89.40;;;;;;5030571;28;20041;-77
2023/12/10 06:32:06;;;;;;;35.42;6.05;;;9.20;89.40;;;;;;5034655;28;20100;-78
2023/12/10 06:34:32;;;;;;;30.05;5.43;;;9.20;89.60;;;;;;5032636;28;20608;-77
2023/12/10 06:36:58;;;;;;;29.15;7.70;;;9.10;89.60;;;;;;5041598;28;20024;-78
2023/12/10 06:39:23;;;;;;;26.30;6.38;;;9.10;89.90;;;;;;5033707;28;20052;-77
2023/12/10 06:41:49;;;;;;;23.63;6.00;;;9.10;90.10;;;;;;5036032;28;20049;-77
2023/12/10 06:44:21;;;;;;;28.70;6.13;;;9.20;90.10;;;;;;5036741;28;20026;-77
2023/12/10 06:46:50;;;;;;;27.20;6.00;;;9.10;90.10;;;;;;5027950;28;20034;-77
2023/12/10 06:49:17;;;;;;;25.33;5.32;;;9.20;90.10;;;;;;5028610;28;20211;-77
2023/12/10 06:51:43;;;;;;;26.58;5.32;;;9.20;90.20;;;;;;5029939;28;20030;-77
2023/12/10 06:54:10;;;;;;;32.25;6.07;;;9.10;90.30;;;;;;5034346;28;20719;-77
2023/12/10 06:56:39;;;;;;;29.38;6.28;;;9.10;90.40;;;;;;5033268;28;20045;-76
2023/12/10 06:59:06;;;;;;;26.40;5.28;;;9.10;90.60;;;;;;5034705;28;20029;-76
2023/12/10 07:01:37;;;;;;;36.47;5.70;;;9.10;90.70;;;;;;5030587;28;20044;-76
2023/12/10 07:04:04;;;;;;;29.90;5.75;;;9.10;90.80;;;;;;5031433;28;20037;-77
2023/12/10 07:06:30;;;;;;;30.05;6.93;;;9.10;90.70;;;;;;5030628;28;20048;-76
2023/12/10 07:08:56;;;;;;;27.48;6.70;;;9.10;90.60;;;;;;5030898;28;20030;-75
2023/12/10 07:11:21;;;;;;;33.45;6.70;;;9.10;90.60;;;;;;5029896;28;20036;-76
2023/12/10 07:13:48;;;;;;;31.95;5.97;;;9.10;90.80;;;;;;5034000;28;20076;-76
2023/12/10 07:16:15;;;;;;;30.10;5.53;;;9.10;90.60;;;;;;5033551;28;20041;-76
2023/12/10 07:18:41;;;;;;;30.00;5.78;;;9.10;90.50;;;;;;5041112;28;20032;-76
2023/12/10 07:21:06;;;;;;;30.25;5.53;;;9.10;90.80;;;;;;5035651;28;20037;-76
2023/12/10 07:23:38;;;;;;;29.77;6.10;;;9.10;90.70;;;;;;5039263;28;20136;-76
2023/12/10 07:26:05;;;;;;;36.22;5.68;;;9.00;90.80;;;;;;5036927;28;20040;-76
2023/12/10 07:28:30;;;;;;;29.63;6.07;;;9.10;90.80;;;;;;5037280;28;20032;-76
2023/12/10 07:30:56;;;;;;;27.95;6.45;;;9.00;90.90;;;;;;5035345;28;20114;-75
2023/12/10 07:33:22;;;;;;;23.77;5.28;;;9.10;91.00;;;;;;5036147;28;20025;-76
2023/12/10 07:35:48;;;;;;;25.85;4.90;;;9.10;91.10;;;;;;5027810;28;20041;-76
2023/12/10 07:38:14;;;;;;;31.02;5.43;;;9.20;90.70;;;;;;5031721;28;20021;-76
2023/12/10 07:40:40;;;;;;;31.35;5.82;;;9.20;90.40;;;;;;5036296;28;20098;-76
2023/12/10 07:43:09;;;;;;;29.45;5.82;;;9.10;90.70;;;;;;5026901;28;20017;-76
2023/12/10 07:45:34;;;;;;;28.60;5.35;;;9.10;90.70;;;;;;5027085;28;20033;-76
2023/12/10 07:48:00;;;;;;;27.63;5.68;;;9.10;90.60;;;;;;5027205;28;20079;-76
2023/12/10 07:50:27;;;;;;;26.73;5.63;;;9.10;90.80;;;;;;5028818;28;20360;-76
2023/12/10 07:52:53;;;;;;;30.83;5.20;;;9.10;90.80;;;;;;5026286;28;20040;-76
2023/12/10 07:55:18;;;;;;;31.13;6.05;;;9.10;91.20;;;;;;5038369;28;20693;-77
2023/12/10 07:57:45;;;;;;;31.92;6.15;;;9.10;91.10;;;;;;5028916;28;20037;-76
2023/12/10 08:00:11;;;;;;;27.10;6.32;;;9.10;91.20;;;;;;5041604;28;20699;-77
2023/12/10 08:02:37;;;;;;;30.73;7.55;;;9.10;91.20;;;;;;5035749;28;20136;-77
2023/12/10 08:05:03;;;;;;;33.65;6.72;;;9.10;91.20;;;;;;5033092;28;20465;-77
2023/12/10 08:07:29;;;;;;;28.33;6.57;;;9.10;91.20;;;;;;5031275;28;20660;-76
2023/12/10 08:09:55;;;;;;;23.25;5.22;;;9.10;91.30;;;;;;5029608;28;20025;-76
2023/12/10 08:12:21;;;;;;;27.40;6.07;;;9.20;91.10;;;;;;5039130;28;20039;-77
2023/12/10 08:14:47;;;;;;;28.92;6.47;;;9.20;91.10;;;;;;5041373;28;20029;-76
2023/12/10 08:17:12;;;;;;;27.15;5.45;;;9.20;91.10;;;;;;5033195;28;20048;-76
2023/12/10 08:19:38;;;;;;;27.33;6.43;;;9.30;91.00;;;;;;5036537;28;20087;-76
2023/12/10 08:22:04;;;;;;;27.70;5.78;;;9.30;91.00;;;;;;5027276;28;20119;-76
2023/12/10 08:24:30;;;;;;;32.33;6.47;;;9.40;90.80;;;;;;5034939;28;20136;-76
2023/12/10 08:26:56;;;;;;;30.33;7.03;;;9.40;90.90;;;;;;5036842;28;20025;-77
2023/12/10 08:29:21;;;;;;;25.20;5.72;;;9.50;90.80;;;;;;5036163;28;20040;-77
2023/12/10 08:31:48;;;;;;;34.00;7.07;;;9.40;90.80;;;;;;5032065;28;20608;-76
2023/12/10 08:34:13;;;;;;;31.30;7.65;;;9.50;90.80;;;;;;5035879;28;20528;-77
2023/12/10 08:36:40;;;;;;;33.53;7.22;;;9.40;91.00;;;;;;5037949;28;20037;-77
2023/12/10 08:39:06;;;;;;;30.05;6.93;;;9.50;91.00;;;;;;5038166;28;20036;-77
2023/12/10 08:41:32;;;;;;;36.45;6.82;;;9.50;91.00;;;;;;5041777;28;20094;-77
2023/12/10 08:43:58;;;;;;;32.47;6.13;;;9.50;91.20;;;;;;5031380;28;20531;-77
2023/12/10 08:46:23;;;;;;;34.20;7.18;;;9.60;91.10;;;;;;5031131;28;20061;-77
2023/12/10 08:48:50;;;;;;;32.35;5.88;;;9.60;91.10;;;;;;5032139;28;20424;-77
2023/12/10 08:51:16;;;;;;;28.60;6.00;;;9.70;91.00;;;;;;5029808;28;20032;-77
2023/12/10 08:53:42;;;;;;;31.00;7.75;;;9.80;90.70;;;;;;5034854;28;20055;-77
2023/12/10 08:56:07;;;;;;;35.80;7.28;;;9.90;90.50;;;;;;5034121;28;20486;-78
2023/12/10 08:58:33;;;;;;;35.70;7.10;;;10.00;90.30;;;;;;5032980;28;20110;-78
2023/12/10 09:00:59;;;;;;;32.83;6.90;;;10.00;90.20;;;;;;5033759;28;20106;-77
2023/12/10 09:03:25;;;;;;;33.78;8.07;;;10.10;90.20;;;;;;5032760;28;20023;-77
2023/12/10 09:05:51;;;;;;;35.80;7.65;;;10.10;90.30;;;;;;5031614;28;20773;-77
2023/12/10 09:08:17;;;;;;;36.05;6.93;;;10.10;90.20;;;;;;5028079;28;20468;-77
2023/12/10 09:10:43;;;;;;;30.48;7.32;;;10.20;90.20;;;;;;5036875;28;20162;-77
2023/12/10 09:13:09;;;;;;;32.65;7.20;;;10.30;90.20;;;;;;5025974;28;20017;-77
2023/12/10 09:15:35;;;;;;;33.10;7.30;;;10.50;89.90;;;;;;5033658;28;20041;-77
2023/12/10 09:18:00;;;;;;;39.50;8.27;;;10.50;89.40;;;;;;5021249;28;20365;-77
2023/12/10 09:20:26;;;;;;;36.15;8.13;;;10.60;89.40;;;;;;5029632;28;20033;-77
2023/12/10 09:22:52;;;;;;;34.05;6.95;;;10.60;89.40;;;;;;5050083;28;20017;-76
2023/12/10 09:25:18;;;;;;;31.63;7.72;;;10.60;89.50;;;;;;5050703;28;20060;-77
2023/12/10 09:27:43;;;;;;;42.08;9.00;;;10.60;89.50;;;;;;5048676;28;20462;-76
2023/12/10 09:30:09;;;;;;;37.85;9.80;;;10.50;89.70;;;;;;5023731;28;20040;-77
2023/12/10 09:32:35;;;;;;;42.63;9.55;;;10.50;89.80;;;;;;5034295;28;20032;-76
2023/12/10 09:35:03;;;;;;;44.10;10.80;;;10.50;89.90;;;;;;5032523;28;20053;-77
2023/12/10 09:37:29;;;;;;;41.33;12.70;;;10.60;90.00;;;;;;5033834;28;20433;-77
2023/12/10 09:39:54;;;;;;;36.13;8.38;;;10.60;89.90;;;;;;5027999;28;20042;-77
2023/12/10 09:42:20;;;;;;;38.03;8.30;;;10.60;89.90;;;;;;5027742;28;20022;-77
2023/12/10 09:44:46;;;;;;;39.83;10.70;;;10.60;89.80;;;;;;5025007;28;20032;-76
2023/12/10 09:47:11;;;;;;;38.97;8.75;;;10.60;89.80;;;;;;5028728;28;20467;-77
2023/12/10 09:49:40;;;;;;;39.72;8.93;;;10.70;89.80;;;;;;5031182;28;20454;-77
2023/12/10 09:52:06;;;;;;;35.30;8.05;;;10.80;89.80;;;;;;5032401;28;20269;-77
2023/12/10 09:54:32;;;;;;;38.78;9.05;;;10.90;89.70;;;;;;5032029;28;20086;-73
2023/12/10 09:56:57;;;;;;;35.20;8.77;;;11.00;89.60;;;;;;5031878;28;20688;-73
2023/12/10 09:59:23;;;;;;;39.25;7.90;;;11.10;89.30;;;;;;5031848;28;20444;-73
2023/12/10 10:01:50;;;;;;;42.83;9.48;;;11.30;88.90;;;;;;5028875;28;20033;-74
2023/12/10 10:04:16;;;;;;;35.22;8.65;;;11.50;88.40;;;;;;5034983;28;20025;-74
2023/12/10 10:06:42;;;;;;;38.40;8.93;;;11.60;88.20;;;;;;5027850;28;20029;-73
2023/12/10 10:09:08;;;;;;;36.30;8.45;;;11.60;88.00;;;;;;5038185;28;20029;-73
2023/12/10 10:11:34;;;;;;;32.63;7.85;;;11.80;87.60;;;;;;5022661;28;20025;-73
2023/12/10 10:14:00;;;;;;;36.30;8.00;;;11.90;87.10;;;;;;5025633;28;20021;-72
2023/12/10 10:16:26;;;;;;;36.95;8.07;;;12.00;87.10;;;;;;5023534;28;20619;-73
2023/12/10 10:18:51;;;;;;;34.85;8.45;;;12.10;87.00;;;;;;5024062;28;20491;-73
2023/12/10 10:21:17;;;;;;;40.10;8.15;;;12.10;86.70;;;;;;5021577;28;20088;-74
2023/12/10 10:23:43;;;;;;;42.17;10.18;;;12.00;86.70;;;;;;5027113;28;20466;-73
2023/12/10 10:26:10;;;;;;;36.88;12.95;;;11.90;86.90;;;;;;5029817;28;20517;-73
2023/12/10 10:28:37;;;;;;;42.88;10.93;;;11.80;87.30;;;;;;5032637;28;20028;-74
2023/12/10 10:31:03;;;;;;;37.65;11.05;;;11.80;87.60;;;;;;5028294;28;20041;-72
2023/12/10 10:33:29;;;;;;;31.10;9.48;;;11.90;87.90;;;;;;5021531;28;20221;-73
2023/12/10 10:35:55;;;;;;;41.70;10.63;;;11.90;87.90;;;;;;5033171;28;20041;-74
2023/12/10 10:38:21;;;;;;;38.55;9.60;;;12.00;87.60;;;;;;5034954;28;20021;-73
2023/12/10 10:40:50;;;;;;;33.00;10.48;;;12.00;87.40;;;;;;5022486;28;20383;-72
2023/12/10 10:43:16;;;;;;;32.88;9.80;;;12.00;87.50;;;;;;5028490;28;20091;-72
2023/12/10 10:45:42;;;;;;;36.22;8.52;;;12.00;87.50;;;;;;5025095;28;20470;-73
2023/12/10 10:48:08;;;;;;;41.92;10.30;;;12.00;87.60;;;;;;5014582;28;20213;-73
2023/12/10 10:50:37;;;;;;;38.30;9.68;;;12.00;87.50;;;;;;5026490;28;20220;-73
2023/12/10 10:53:03;;;;;;;36.90;8.35;;;12.00;87.80;;;;;;5032593;28;20048;-72
2023/12/10 10:55:30;;;;;;;35.45;7.85;;;12.10;87.70;;;;;;5027098;28;20068;-73
2023/12/10 10:57:55;;;;;;;40.75;8.65;;;12.20;87.80;;;;;;5030085;28;20131;-73
2023/12/10 11:00:21;;;;;;;41.70;10.07;;;12.20;88.00;;;;;;5023047;28;20025;-73
2023/12/10 11:02:49;;;;;;;44.72;8.18;;;12.20;88.10;;;;;;5034030;28;20128;-74
2023/12/10 11:05:34;;;;;;;40.88;8.35;;;12.30;88.30;;;;;;5030561;28;20291;-74
2023/12/10 11:08:00;;;;;;;41.70;9.48;;;12.30;88.50;;;;;;5030073;28;20036;-74
2023/12/10 11:10:26;;;;;;;38.95;7.95;;;12.30;88.60;;;;;;5031555;28;20516;-73
2023/12/10 11:12:54;;;;;;;42.08;9.60;;;12.30;88.90;;;;;;5020208;28;20029;-73
2023/12/10 11:15:27;;;;;;;36.67;8.32;;;12.40;88.90;;;;;;5027338;28;20518;-74
2023/12/10 11:18:05;;;;;;;34.78;8.15;;;12.30;88.70;;;;;;5021827;28;20037;-75
2023/12/10 11:20:35;;;;;;;38.00;7.82;;;12.40;88.70;;;;;;5025108;28;20195;-72
2023/12/10 11:23:03;;;;;;;38.97;8.23;;;12.40;88.80;;;;;;5025283;28;20089;-76
2023/12/10 11:25:29;;;;;;;36.47;7.70;;;12.40;88.80;;;;;;5024134;28;20033;-74
2023/12/10 11:28:00;;;;;;;37.90;7.63;;;12.40;88.80;;;;;;5028734;28;20089;-74
2023/12/10 11:30:27;;;;;;;39.25;7.78;;;12.30;88.90;;;;;;5027629;28;20149;-74
2023/12/10 11:32:54;;;;;;;32.60;7.40;;;12.20;89.20;;;;;;5028053;28;20326;-74
2023/12/10 11:35:19;;;;;;;36.95;8.13;;;12.20;89.50;;;;;;5022767;28;20053;-75
2023/12/10 11:37:45;;;;;;;32.63;7.55;;;12.10;89.50;;;;;;5028006;28;20340;-74
2023/12/10 11:40:11;;;;;;;38.25;8.00;;;12.00;89.60;;;;;;5025473;28;20048;-74
2023/12/10 11:42:37;;;;;;;45.17;9.00;;;11.80;89.60;;;;;;5032877;28;20455;-74
2023/12/10 11:45:06;;;;;;;31.65;8.38;;;11.70;89.80;;;;;;5026359;28;20471;-75
2023/12/10 11:47:32;;;;;;;30.17;8.27;;;11.70;90.10;;;;;;5034890;28;20029;-75
2023/12/10 11:49:57;;;;;;;36.08;8.02;;;11.60;90.20;;;;;;5023262;28;20060;-75
2023/12/10 11:52:23;;;;;;;39.30;8.48;;;11.60;90.30;;;;;;5028603;28;20021;-76
2023/12/10 11:54:49;;;;;;;32.95;7.78;;;11.60;90.40;;;;;;5027496;28;20128;-75
2023/12/10 11:57:15;;;;;;;36.60;9.13;;;11.60;90.50;;;;;;5028270;28;20489;-75
2023/12/10 11:59:43;;;;;;;35.00;8.82;;;11.60;90.60;;;;;;5035308;28;20500;-74
2023/12/10 12:02:09;;;;;;;32.90;7.78;;;11.60;90.50;;;;;;5027746;28;20025;-74
2023/12/10 12:04:35;;;;;;;42.13;9.32;;;11.60;90.50;;;;;;5014540;28;20036;-74
2023/12/10 12:07:01;;;;;;;28.13;7.53;;;11.60;90.50;;;;;;5045824;28;20505;-73
2023/12/10 12:09:26;;;;;;;30.35;7.47;;;11.60;90.30;;;;;;5030121;28;20331;-73
2023/12/10 12:11:52;;;;;;;31.83;7.30;;;11.50;90.50;;;;;;5036940;28;20061;-73
2023/12/10 12:14:19;;;;;;;31.10;7.93;;;11.50;90.60;;;;;;5036691;28;20205;-77
2023/12/10 12:16:48;;;;;;;24.77;7.07;;;11.40;90.50;;;;;;5032699;28;20381;-75
2023/12/10 12:19:26;;;;;;;35.47;9.13;;;11.40;90.60;;;;;;5032763;28;20036;-75
2023/12/10 12:21:52;;;;;;;34.67;7.90;;;11.30;90.70;;;;;;5030301;28;20099;-74
2023/12/10 12:24:18;;;;;;;30.48;7.65;;;11.20;90.70;;;;;;5027208;28;20443;-74
2023/12/10 12:26:44;;;;;;;33.28;7.32;;;11.20;90.60;;;;;;5024903;28;20044;-73
2023/12/10 12:29:10;;;;;;;32.55;6.65;;;11.20;90.60;;;;;;5023253;28;20036;-75
2023/12/10 12:31:38;;;;;;;27.52;6.80;;;11.20;90.40;;;;;;5029554;28;20086;-72
2023/12/10 12:34:03;;;;;;;35.30;7.63;;;11.20;90.50;;;;;;5027036;28;20021;-75
2023/12/10 12:36:29;;;;;;;29.80;6.70;;;11.20;90.30;;;;;;5040225;28;20080;-74